Terminal Aerodrome Forecast
Issued by NWS Hastings, NE

Home | Current Version | Previous Version | Text Only | Print | Product List | Glossary On
Versions: 1 2 3 4 5 6 7 8 9 10 11 12 13 14 15 16
000
FTUS45 KGID 300520
TAFEAR
TAF
KEAR 300520Z 3006/0106 02021G29KT 6SM RA OVC015
     FM300800 01023G32KT 4SM RASN OVC008
     FM301300 01026G35KT 2SM RASN OVC003
     FM301600 36028G37KT 1 1/2SM -SN OVC008
     FM301800 36028G37KT 1SM -SN OVC008
     FM010000 35027G36KT 2SM -SN OVC008
      AMD LTD TO CLD VIS AND WIND=

USA.gov is the U.S. government's official web portal to all federal, state and local government web resources and services.